createdAt,value
2018-11-11T00:01:18.516Z,99.90
2018-11-11T00:03:45.841Z,99.90
2018-11-11T00:06:13.158Z,99.90
2018-11-11T00:08:40.509Z,99.90
2018-11-11T00:11:07.837Z,99.90
2018-11-11T00:13:35.160Z,99.90
2018-11-11T00:16:02.472Z,99.90
2018-11-11T00:18:29.824Z,99.90
2018-11-11T00:20:57.190Z,99.90
2018-11-11T00:23:24.515Z,99.90
2018-11-11T00:25:51.836Z,99.90
2018-11-11T00:28:19.152Z,99.90
2018-11-11T00:30:46.471Z,99.90
2018-11-11T00:33:13.805Z,99.90
2018-11-11T00:35:41.117Z,99.90
2018-11-11T00:38:08.451Z,99.90
2018-11-11T00:40:35.796Z,99.90
2018-11-11T00:43:03.181Z,99.90
2018-11-11T00:45:30.448Z,99.90
2018-11-11T00:47:57.715Z,99.90
2018-11-11T00:50:24.988Z,99.90
2018-11-11T00:52:52.238Z,99.90
2018-11-11T00:55:19.503Z,99.90
2018-11-11T00:57:46.754Z,99.90
2018-11-11T01:00:15.366Z,99.90
2018-11-11T01:02:43.335Z,99.90
2018-11-11T01:05:11.394Z,99.90
2018-11-11T01:07:39.554Z,99.90
2018-11-11T01:10:08.668Z,99.90
2018-11-11T01:12:35.946Z,99.90
2018-11-11T01:15:03.275Z,99.90
2018-11-11T01:17:30.518Z,99.90
2018-11-11T01:19:57.803Z,99.90
2018-11-11T01:22:25.063Z,99.90
2018-11-11T01:24:52.330Z,99.90
2018-11-11T01:27:19.594Z,99.90
2018-11-11T01:29:46.871Z,99.90
2018-11-11T01:32:14.133Z,99.90
2018-11-11T01:34:41.415Z,99.90
2018-11-11T01:37:08.695Z,99.90
2018-11-11T01:39:35.962Z,99.90
2018-11-11T01:42:03.274Z,99.90
2018-11-11T01:44:30.571Z,99.90
2018-11-11T01:46:57.832Z,99.90
2018-11-11T01:49:25.139Z,99.90
2018-11-11T01:51:52.407Z,99.90
2018-11-11T01:54:19.678Z,99.90
2018-11-11T01:56:46.941Z,99.90
2018-11-11T01:59:14.261Z,99.90
2018-11-11T02:01:41.596Z,99.90
2018-11-11T02:04:08.916Z,99.90
2018-11-11T02:06:36.880Z,99.90
2018-11-11T02:09:07.177Z,99.90
2018-11-11T02:11:34.485Z,99.90
2018-11-11T02:14:01.811Z,99.90
2018-11-11T02:16:29.141Z,99.90
2018-11-11T02:18:56.443Z,99.90
2018-11-11T02:21:23.823Z,99.90
2018-11-11T02:23:51.136Z,99.90
2018-11-11T02:26:18.487Z,99.90
2018-11-11T02:28:45.809Z,99.90
2018-11-11T02:31:13.144Z,99.90
2018-11-11T02:33:40.536Z,99.90
2018-11-11T02:36:07.878Z,99.90
2018-11-11T02:38:35.225Z,99.90
2018-11-11T02:41:02.541Z,99.90
2018-11-11T02:43:29.850Z,99.90
2018-11-11T02:45:57.176Z,99.90
2018-11-11T02:48:24.471Z,99.90
2018-11-11T02:50:51.792Z,99.90
2018-11-11T02:53:19.233Z,99.90
2018-11-11T02:55:46.562Z,99.90
2018-11-11T02:58:13.876Z,99.90
2018-11-11T03:00:41.201Z,99.90
2018-11-11T03:03:08.516Z,99.90
2018-11-11T03:05:35.815Z,99.90
2018-11-11T03:08:03.122Z,99.90
2018-11-11T03:10:31.469Z,99.90
2018-11-11T03:12:58.807Z,99.90
2018-11-11T03:15:26.117Z,99.90
2018-11-11T03:17:53.450Z,99.90
2018-11-11T03:20:20.759Z,99.90
2018-11-11T03:22:48.059Z,99.90
2018-11-11T03:25:16.136Z,99.90
2018-11-11T03:27:43.595Z,99.90
2018-11-11T03:30:12.402Z,99.90
2018-11-11T03:32:39.993Z,99.90
2018-11-11T03:35:08.882Z,99.90
2018-11-11T03:37:36.228Z,99.90
2018-11-11T03:40:07.244Z,99.90
2018-11-11T03:42:34.552Z,99.90
2018-11-11T03:45:01.897Z,99.90
2018-11-11T03:47:29.633Z,99.90
2018-11-11T03:49:56.945Z,99.90
2018-11-11T03:52:24.260Z,99.90
2018-11-11T03:54:51.572Z,99.90
2018-11-11T03:57:18.872Z,99.90
2018-11-11T03:59:46.192Z,99.90
2018-11-11T04:02:13.515Z,99.90
2018-11-11T04:04:40.845Z,99.90
2018-11-11T04:07:08.160Z,99.90
2018-11-11T04:09:35.498Z,99.90
2018-11-11T04:12:02.808Z,99.90
2018-11-11T04:14:30.120Z,99.90
2018-11-11T04:16:57.444Z,99.90
2018-11-11T04:19:24.997Z,99.90
2018-11-11T04:21:52.307Z,99.90
2018-11-11T04:24:19.624Z,99.90
2018-11-11T04:26:46.941Z,99.90
2018-11-11T04:29:14.252Z,99.90
2018-11-11T04:31:41.548Z,99.90
2018-11-11T04:34:08.905Z,99.90
2018-11-11T04:36:36.204Z,99.90
2018-11-11T04:39:06.458Z,99.90
2018-11-11T04:41:33.751Z,99.90
2018-11-11T04:44:01.076Z,99.90
2018-11-11T04:46:29.467Z,99.90
2018-11-11T04:48:56.792Z,99.90
2018-11-11T04:51:24.106Z,99.90
2018-11-11T04:53:51.404Z,99.90
2018-11-11T04:56:18.812Z,99.90
2018-11-11T04:58:47.121Z,99.90
2018-11-11T05:01:14.483Z,99.90
2018-11-11T05:03:41.770Z,99.90
2018-11-11T05:06:09.096Z,99.90
2018-11-11T05:08:36.420Z,99.90
2018-11-11T05:11:03.752Z,99.90
2018-11-11T05:13:31.625Z,99.90
2018-11-11T05:15:58.960Z,99.90
2018-11-11T05:18:26.305Z,99.90
2018-11-11T05:20:53.653Z,99.90
2018-11-11T05:23:21.037Z,99.90
2018-11-11T05:25:48.340Z,99.90
2018-11-11T05:28:15.681Z,99.90
2018-11-11T05:30:43.009Z,99.90
2018-11-11T05:33:10.332Z,99.90
2018-11-11T05:35:37.657Z,99.90
2018-11-11T05:38:04.992Z,99.90
2018-11-11T05:40:32.316Z,99.90
2018-11-11T05:42:59.724Z,99.90
2018-11-11T05:45:27.060Z,99.90
2018-11-11T05:47:54.376Z,99.90
2018-11-11T05:50:21.934Z,99.90
2018-11-11T05:52:49.449Z,99.90
2018-11-11T05:55:16.787Z,99.90
2018-11-11T05:57:44.124Z,99.90
2018-11-11T06:00:12.593Z,99.90
2018-11-11T06:02:39.929Z,99.90
2018-11-11T06:05:08.932Z,99.90
2018-11-11T06:07:36.419Z,99.90
2018-11-11T06:10:04.444Z,99.90
2018-11-11T06:12:31.817Z,99.90
2018-11-11T06:14:59.157Z,99.90
2018-11-11T06:17:26.507Z,99.90
2018-11-11T06:19:53.865Z,99.90
2018-11-11T06:22:21.236Z,99.90
2018-11-11T06:24:48.573Z,99.90
2018-11-11T06:27:15.951Z,99.90
2018-11-11T06:29:43.292Z,99.90
2018-11-11T06:32:10.638Z,99.90
2018-11-11T06:34:38.001Z,99.90
2018-11-11T06:37:05.378Z,99.90
2018-11-11T06:39:32.768Z,99.90
2018-11-11T06:42:00.786Z,99.90
2018-11-11T06:44:28.104Z,99.90
2018-11-11T06:46:55.432Z,99.90
2018-11-11T06:49:22.790Z,99.90
2018-11-11T06:51:50.778Z,99.90
2018-11-11T06:54:18.114Z,99.90
2018-11-11T06:56:45.416Z,99.90
2018-11-11T06:59:12.774Z,99.90
2018-11-11T07:01:40.072Z,99.90
2018-11-11T07:04:07.405Z,99.90
2018-11-11T07:06:34.720Z,99.90
2018-11-11T07:09:02.055Z,99.90
2018-11-11T07:11:30.356Z,99.90
2018-11-11T07:13:57.683Z,99.90
2018-11-11T07:16:24.994Z,99.90
2018-11-11T07:18:52.306Z,99.90
2018-11-11T07:21:19.676Z,99.90
2018-11-11T07:23:47.319Z,99.90
2018-11-11T07:26:14.510Z,99.90
2018-11-11T07:28:41.841Z,99.90
2018-11-11T07:31:09.368Z,99.90
2018-11-11T07:33:36.763Z,99.90
2018-11-11T07:36:04.620Z,99.90
2018-11-11T07:38:31.881Z,99.90
2018-11-11T07:40:59.221Z,99.90
2018-11-11T07:43:26.559Z,99.90
2018-11-11T07:45:53.881Z,99.90
2018-11-11T07:48:21.210Z,99.90
2018-11-11T07:50:48.612Z,99.90
2018-11-11T07:53:15.980Z,99.90
2018-11-11T07:55:43.320Z,99.90
2018-11-11T07:58:10.671Z,99.90
2018-11-11T08:00:38.008Z,99.90
2018-11-11T08:03:05.403Z,99.90
2018-11-11T08:05:32.724Z,99.90
2018-11-11T08:08:00.069Z,99.90
2018-11-11T08:10:39.153Z,99.90
2018-11-11T08:13:06.523Z,99.90
2018-11-11T08:15:33.848Z,99.90
2018-11-11T08:18:01.188Z,99.90
2018-11-11T08:20:28.512Z,99.90
2018-11-11T08:22:55.836Z,99.90
2018-11-11T08:25:23.167Z,99.90
2018-11-11T08:27:50.468Z,99.90
2018-11-11T08:30:17.885Z,99.90
2018-11-11T08:32:45.220Z,99.90
2018-11-11T08:35:12.540Z,99.90
2018-11-11T08:37:39.893Z,99.90
2018-11-11T08:40:07.794Z,99.90
2018-11-11T08:42:35.109Z,99.90
2018-11-11T08:45:02.898Z,99.90
2018-11-11T08:47:30.224Z,99.90
2018-11-11T08:49:57.587Z,99.90
2018-11-11T08:52:24.916Z,99.90
2018-11-11T08:54:52.258Z,99.90
2018-11-11T08:57:19.596Z,99.90
2018-11-11T08:59:46.937Z,99.90
2018-11-11T09:02:14.239Z,99.90
2018-11-11T09:04:41.613Z,99.90
2018-11-11T09:07:08.917Z,99.90
2018-11-11T09:09:36.320Z,99.90
2018-11-11T09:12:03.901Z,99.90
2018-11-11T09:14:31.219Z,99.90
2018-11-11T09:16:58.531Z,99.90
2018-11-11T09:19:25.869Z,99.90
2018-11-11T09:21:53.201Z,99.90
2018-11-11T09:24:20.633Z,99.90
2018-11-11T09:26:47.931Z,99.90
2018-11-11T09:29:15.248Z,99.90
2018-11-11T09:31:42.552Z,99.90
2018-11-11T09:34:09.897Z,99.90
2018-11-11T09:36:37.304Z,99.90
2018-11-11T09:39:07.520Z,99.90
2018-11-11T09:41:34.822Z,99.90
2018-11-11T09:44:02.170Z,99.90
2018-11-11T09:46:29.488Z,99.90
2018-11-11T09:48:58.151Z,99.90
2018-11-11T09:51:25.494Z,99.90
2018-11-11T09:53:52.912Z,99.90
2018-11-11T09:56:20.384Z,99.90
2018-11-11T09:58:47.796Z,99.90
2018-11-11T10:01:15.092Z,99.90
2018-11-11T10:03:46.903Z,99.90
2018-11-11T10:06:20.658Z,99.90
2018-11-11T10:08:54.510Z,99.90
2018-11-11T10:11:26.663Z,99.90
2018-11-11T10:13:59.623Z,99.90
2018-11-11T10:16:41.435Z,99.90
2018-11-11T10:19:16.453Z,99.90
2018-11-11T10:22:53.536Z,99.90
2018-11-11T10:25:33.785Z,99.90
2018-11-11T10:28:10.842Z,99.90
2018-11-11T10:30:49.994Z,99.90
2018-11-11T10:34:29.747Z,99.90
2018-11-11T10:37:05.261Z,99.90
2018-11-11T10:39:38.416Z,99.90
2018-11-11T10:42:24.932Z,99.90
2018-11-11T10:44:57.833Z,99.90
2018-11-11T10:47:29.168Z,99.90
2018-11-11T10:49:59.612Z,99.90
2018-11-11T10:52:26.966Z,99.90
2018-11-11T10:54:54.744Z,99.90
2018-11-11T10:57:22.081Z,99.90
2018-11-11T10:59:49.400Z,99.90
2018-11-11T11:02:19.226Z,99.90
2018-11-11T11:04:52.269Z,99.90
2018-11-11T11:07:19.847Z,99.90
2018-11-11T11:09:47.189Z,99.90
2018-11-11T11:12:15.212Z,99.90
2018-11-11T11:14:42.528Z,99.90
2018-11-11T11:17:09.833Z,99.90
2018-11-11T11:19:37.136Z,99.90
2018-11-11T11:22:05.077Z,99.90
2018-11-11T11:24:32.392Z,99.90
2018-11-11T11:26:59.777Z,99.90
2018-11-11T11:29:27.045Z,99.90
2018-11-11T11:31:54.400Z,99.90
2018-11-11T11:34:21.708Z,99.90
2018-11-11T11:36:49.092Z,99.90
2018-11-11T11:39:16.395Z,99.90
2018-11-11T11:41:43.716Z,99.90
2018-11-11T11:44:11.041Z,99.90
2018-11-11T11:46:38.364Z,99.90
2018-11-11T11:49:05.676Z,99.90
2018-11-11T11:51:32.993Z,99.90
2018-11-11T11:54:00.370Z,99.90
2018-11-11T11:56:27.848Z,99.90
2018-11-11T11:58:55.177Z,99.90
2018-11-11T12:01:22.476Z,99.90
2018-11-11T12:03:49.837Z,99.90
2018-11-11T12:06:17.410Z,99.90
2018-11-11T12:08:44.915Z,99.90
2018-11-11T12:11:12.165Z,99.90
2018-11-11T12:13:39.480Z,99.90
2018-11-11T12:16:06.789Z,99.90
2018-11-11T12:18:35.109Z,99.90
2018-11-11T12:21:02.476Z,99.90
2018-11-11T12:23:29.792Z,99.90
2018-11-11T12:25:57.117Z,99.90
2018-11-11T12:28:24.437Z,99.90
2018-11-11T12:30:51.895Z,99.90
2018-11-11T12:33:19.201Z,99.90
2018-11-11T12:35:47.119Z,99.90
2018-11-11T12:38:14.452Z,99.90
2018-11-11T12:40:41.766Z,99.90
2018-11-11T12:43:09.122Z,99.90
2018-11-11T12:45:36.384Z,99.90
2018-11-11T12:48:04.356Z,99.90
2018-11-11T12:50:31.704Z,99.90
2018-11-11T12:52:58.968Z,99.90
2018-11-11T12:55:26.480Z,99.90
2018-11-11T12:57:54.250Z,99.90
2018-11-11T13:00:21.608Z,99.90
2018-11-11T13:02:48.915Z,99.90
2018-11-11T13:05:16.257Z,99.90
2018-11-11T13:07:43.556Z,99.90
2018-11-11T13:10:12.081Z,99.90
2018-11-11T13:12:39.740Z,99.10
2018-11-11T13:15:08.248Z,98.50
2018-11-11T13:17:35.684Z,98.50
2018-11-11T13:20:03.393Z,98.30
2018-11-11T13:22:30.713Z,96.90
2018-11-11T13:24:58.033Z,97.30
2018-11-11T13:27:25.320Z,96.90
2018-11-11T13:29:52.652Z,95.70
2018-11-11T13:32:20.722Z,95.20
2018-11-11T13:34:48.062Z,93.60
2018-11-11T13:37:15.383Z,92.80
2018-11-11T13:39:42.697Z,91.80
2018-11-11T13:42:10.053Z,91.60
2018-11-11T13:44:37.379Z,92.40
2018-11-11T13:47:05.001Z,91.70
2018-11-11T13:49:32.296Z,90.30
2018-11-11T13:51:59.645Z,90.30
2018-11-11T13:54:26.995Z,90.00
2018-11-11T13:56:54.301Z,90.90
2018-11-11T13:59:21.620Z,90.80
2018-11-11T14:01:49.072Z,90.50
2018-11-11T14:04:16.252Z,91.10
2018-11-11T14:06:43.574Z,90.70
2018-11-11T14:09:12.701Z,90.70
2018-11-11T14:11:40.185Z,90.10
2018-11-11T14:14:07.916Z,88.60
2018-11-11T14:16:35.384Z,88.00
2018-11-11T14:19:03.218Z,87.00
2018-11-11T14:21:30.225Z,89.10
2018-11-11T14:23:57.609Z,89.50
2018-11-11T14:26:24.961Z,88.40
2018-11-11T14:28:52.168Z,88.90
2018-11-11T14:31:19.461Z,88.70
2018-11-11T14:33:46.749Z,88.70
2018-11-11T14:36:14.027Z,88.60
2018-11-11T14:38:41.398Z,88.80
2018-11-11T14:41:08.599Z,88.80
2018-11-11T14:43:35.896Z,88.60
2018-11-11T14:46:03.288Z,88.60
2018-11-11T14:48:30.524Z,89.20
2018-11-11T14:50:57.828Z,89.40
2018-11-11T14:53:25.153Z,89.40
2018-11-11T14:55:52.477Z,89.60
2018-11-11T14:58:19.799Z,89.20
2018-11-11T15:00:47.104Z,89.70
2018-11-11T15:03:15.836Z,90.00
2018-11-11T15:05:43.163Z,89.80
2018-11-11T15:08:10.546Z,90.80
2018-11-11T15:10:37.984Z,91.50
2018-11-11T15:13:06.118Z,91.90
2018-11-11T15:15:33.436Z,92.60
2018-11-11T15:18:01.145Z,93.60
2018-11-11T15:20:28.533Z,94.20
2018-11-11T15:22:55.963Z,95.00
2018-11-11T15:25:24.508Z,95.90
2018-11-11T15:27:51.752Z,96.40
2018-11-11T15:30:24.795Z,97.80
2018-11-11T15:32:52.641Z,99.20
2018-11-11T15:35:19.945Z,99.90
2018-11-11T15:37:47.243Z,99.90
2018-11-11T15:40:18.903Z,99.90
2018-11-11T15:42:46.221Z,99.90
2018-11-11T15:45:15.451Z,99.90
2018-11-11T15:47:42.895Z,99.90
2018-11-11T15:50:14.579Z,99.90
2018-11-11T15:52:43.776Z,99.90
2018-11-11T15:55:12.349Z,99.90
2018-11-11T15:57:39.677Z,99.90
2018-11-11T16:00:09.452Z,99.90
2018-11-11T16:02:36.975Z,99.90
2018-11-11T16:05:04.868Z,99.90
2018-11-11T16:07:32.148Z,99.90
2018-11-11T16:09:59.438Z,99.90
2018-11-11T16:12:27.169Z,99.90
2018-11-11T16:14:54.476Z,99.90
2018-11-11T16:17:21.785Z,99.90
2018-11-11T16:19:49.150Z,99.90
2018-11-11T16:22:16.608Z,99.90
2018-11-11T16:24:43.936Z,99.90
2018-11-11T16:27:11.420Z,99.90
2018-11-11T16:29:38.729Z,99.90
2018-11-11T16:32:06.099Z,99.90
2018-11-11T16:34:34.520Z,99.90
2018-11-11T16:37:02.015Z,99.90
2018-11-11T16:39:29.409Z,99.90
2018-11-11T16:41:56.708Z,99.90
2018-11-11T16:44:24.129Z,99.90
2018-11-11T16:46:51.424Z,99.90
2018-11-11T16:49:18.728Z,99.90
2018-11-11T16:51:46.024Z,99.90
2018-11-11T16:54:13.332Z,99.90
2018-11-11T16:56:40.623Z,99.90
2018-11-11T16:59:07.932Z,99.90
2018-11-11T17:01:35.517Z,99.90
2018-11-11T17:04:02.841Z,99.90
2018-11-11T17:06:30.137Z,99.90
2018-11-11T17:08:57.498Z,99.90
2018-11-11T17:11:25.657Z,99.90
2018-11-11T17:13:52.956Z,99.90
2018-11-11T17:16:20.794Z,99.90
2018-11-11T17:18:48.092Z,99.90
2018-11-11T17:21:15.466Z,99.90
2018-11-11T17:23:42.848Z,99.90
2018-11-11T17:26:10.153Z,99.90
2018-11-11T17:28:37.521Z,99.90
2018-11-11T17:31:04.881Z,99.90
2018-11-11T17:33:32.237Z,99.90
2018-11-11T17:35:59.579Z,99.90
2018-11-11T17:38:26.875Z,99.90
2018-11-11T17:40:54.185Z,99.90
2018-11-11T17:43:21.480Z,99.90
2018-11-11T17:45:48.759Z,99.90
2018-11-11T17:48:16.031Z,99.90
2018-11-11T17:50:43.349Z,99.90
2018-11-11T17:53:10.648Z,99.90
2018-11-11T17:55:38.041Z,99.90
2018-11-11T17:58:05.311Z,99.90
2018-11-11T18:00:32.646Z,99.90
2018-11-11T18:03:00.821Z,99.90
2018-11-11T18:05:29.021Z,99.90
2018-11-11T18:07:56.514Z,99.90
2018-11-11T18:10:24.724Z,99.90
2018-11-11T18:12:52.006Z,99.90
2018-11-11T18:15:22.040Z,99.90
2018-11-11T18:17:49.346Z,99.90
2018-11-11T18:20:20.199Z,99.90
2018-11-11T18:22:47.976Z,99.90
2018-11-11T18:25:15.329Z,99.90
2018-11-11T18:27:42.725Z,99.90
2018-11-11T18:30:13.369Z,99.90
2018-11-11T18:32:40.683Z,99.90
2018-11-11T18:35:09.692Z,99.90
2018-11-11T18:37:37.016Z,99.90
2018-11-11T18:40:05.138Z,99.90
2018-11-11T18:42:32.522Z,99.90
2018-11-11T18:44:59.856Z,99.90
2018-11-11T18:47:27.232Z,99.90
2018-11-11T18:49:54.549Z,99.90
2018-11-11T18:52:22.552Z,99.90
2018-11-11T18:54:49.890Z,99.90
2018-11-11T18:57:17.368Z,99.90
2018-11-11T18:59:44.576Z,99.90
2018-11-11T19:02:11.867Z,99.90
2018-11-11T19:04:39.149Z,99.90
2018-11-11T19:07:07.645Z,99.90
2018-11-11T19:09:34.926Z,99.90
2018-11-11T19:12:02.277Z,99.90
2018-11-11T19:14:29.605Z,99.90
2018-11-11T19:16:56.952Z,99.90
2018-11-11T19:19:24.304Z,99.90
2018-11-11T19:21:52.173Z,99.90
2018-11-11T19:24:19.703Z,99.90
2018-11-11T19:26:47.046Z,99.90
2018-11-11T19:29:14.680Z,99.90
2018-11-11T19:31:42.105Z,99.90
2018-11-11T19:34:09.612Z,99.90
2018-11-11T19:36:36.913Z,99.90
2018-11-11T19:39:07.515Z,99.90
2018-11-11T19:41:34.839Z,99.90
2018-11-11T19:44:02.225Z,99.90
2018-11-11T19:46:29.512Z,99.90
2018-11-11T19:48:56.808Z,99.90
2018-11-11T19:51:24.105Z,99.90
2018-11-11T19:53:51.532Z,99.90
2018-11-11T19:56:18.849Z,99.90
2018-11-11T19:58:46.193Z,99.90
2018-11-11T20:01:13.513Z,99.90
2018-11-11T20:03:40.852Z,99.90
2018-11-11T20:06:08.163Z,99.90
2018-11-11T20:08:35.489Z,99.90
2018-11-11T20:11:02.873Z,99.90
2018-11-11T20:13:30.536Z,99.90
2018-11-11T20:15:57.860Z,99.90
2018-11-11T20:18:25.196Z,99.90
2018-11-11T20:20:52.496Z,99.90
2018-11-11T20:23:19.998Z,99.90
2018-11-11T20:25:47.316Z,99.90
2018-11-11T20:28:14.744Z,99.90
2018-11-11T20:30:42.014Z,99.90
2018-11-11T20:33:09.336Z,99.90
2018-11-11T20:35:36.653Z,99.90
2018-11-11T20:38:04.088Z,99.90
2018-11-11T20:40:31.417Z,99.90
2018-11-11T20:42:59.027Z,99.90
2018-11-11T20:45:28.650Z,99.90
2018-11-11T20:47:55.994Z,99.90
2018-11-11T20:50:25.684Z,99.90
2018-11-11T20:52:54.576Z,99.90
2018-11-11T20:55:22.217Z,99.90
2018-11-11T20:57:49.568Z,99.90
2018-11-11T21:00:18.465Z,99.90
2018-11-11T21:02:45.792Z,99.90
2018-11-11T21:05:14.433Z,99.90
2018-11-11T21:07:41.931Z,99.90
2018-11-11T21:10:12.079Z,99.90
2018-11-11T21:12:39.407Z,99.90
2018-11-11T21:15:08.608Z,99.90
2018-11-11T21:17:35.879Z,99.90
2018-11-11T21:20:04.300Z,99.90
2018-11-11T21:22:31.574Z,99.90
2018-11-11T21:24:58.826Z,99.90
2018-11-11T21:27:26.260Z,99.90
2018-11-11T21:29:53.571Z,99.90
2018-11-11T21:32:20.950Z,99.90
2018-11-11T21:34:48.223Z,99.90
2018-11-11T21:37:15.552Z,99.90
2018-11-11T21:39:42.870Z,99.90
2018-11-11T21:42:10.188Z,99.90
2018-11-11T21:44:37.526Z,99.90
2018-11-11T21:47:04.810Z,99.90
2018-11-11T21:49:32.133Z,99.90
2018-11-11T21:51:59.446Z,99.90
2018-11-11T21:54:26.753Z,99.90
2018-11-11T21:56:54.057Z,99.90
2018-11-11T21:59:21.381Z,99.90
2018-11-11T22:01:48.677Z,99.90
2018-11-11T22:04:15.980Z,99.90
2018-11-11T22:06:43.288Z,99.90
2018-11-11T22:09:11.555Z,99.90
2018-11-11T22:11:39.100Z,99.90
2018-11-11T22:14:07.057Z,99.90
2018-11-11T22:16:34.352Z,99.90
2018-11-11T22:19:01.705Z,99.90
2018-11-11T22:21:29.026Z,99.90
2018-11-11T22:23:56.341Z,99.90
2018-11-11T22:26:23.713Z,99.90
2018-11-11T22:28:50.973Z,99.90
2018-11-11T22:31:18.281Z,99.90
2018-11-11T22:33:45.614Z,99.90
2018-11-11T22:36:12.924Z,99.90
2018-11-11T22:38:40.253Z,99.90
2018-11-11T22:41:07.578Z,99.90
2018-11-11T22:43:34.939Z,99.90
2018-11-11T22:46:02.240Z,99.90
2018-11-11T22:48:29.569Z,99.90
2018-11-11T22:50:56.873Z,99.90
2018-11-11T22:53:24.191Z,99.90
2018-11-11T22:55:51.532Z,99.90
2018-11-11T22:58:18.873Z,99.90
2018-11-11T23:00:51.936Z,99.90
2018-11-11T23:03:19.258Z,99.90
2018-11-11T23:05:46.569Z,99.90
2018-11-11T23:08:14.464Z,99.90
2018-11-11T23:10:41.763Z,99.90
2018-11-11T23:13:09.075Z,99.90
2018-11-11T23:15:36.395Z,99.90
2018-11-11T23:18:03.844Z,99.90
2018-11-11T23:20:31.174Z,99.90
2018-11-11T23:22:58.456Z,99.90
2018-11-11T23:25:25.750Z,99.90
2018-11-11T23:27:53.027Z,99.90
2018-11-11T23:30:21.567Z,99.90
2018-11-11T23:32:48.991Z,99.90
2018-11-11T23:35:16.322Z,99.90
2018-11-11T23:37:44.009Z,99.90
2018-11-11T23:40:12.602Z,99.90
2018-11-11T23:42:40.772Z,99.90
2018-11-11T23:45:08.118Z,99.90
2018-11-11T23:47:35.378Z,99.90
2018-11-11T23:50:02.990Z,99.90
2018-11-11T23:52:30.393Z,99.90
2018-11-11T23:54:57.708Z,99.90
2018-11-11T23:57:25.004Z,99.90
2018-11-11T23:59:52.336Z,99.90
